createdAt,value
2023-03-21T00:10:04.820Z,84.07
2023-03-21T00:20:15.480Z,84.09
2023-03-21T00:30:21.433Z,84.27
2023-03-21T00:40:35.052Z,84.65
2023-03-21T00:50:45.424Z,84.76
2023-03-21T01:00:52.503Z,84.81
2023-03-21T01:11:02.365Z,84.80
2023-03-21T01:21:07.970Z,84.75
2023-03-21T01:31:15.393Z,84.66
2023-03-21T01:41:22.045Z,84.97
2023-03-21T01:51:27.803Z,84.91
2023-03-21T02:01:35.073Z,85.07
2023-03-21T02:11:46.758Z,85.09
2023-03-21T02:22:08.512Z,85.11
2023-03-21T02:32:36.521Z,84.94
2023-03-21T02:42:59.398Z,84.81
2023-03-21T02:53:12.563Z,84.93
2023-03-21T03:03:33.075Z,84.98
2023-03-21T03:13:42.502Z,85.27
2023-03-21T03:23:50.883Z,85.25
2023-03-21T03:33:59.634Z,85.24
2023-03-21T03:44:06.871Z,85.41
2023-03-21T03:54:15.811Z,85.36
2023-03-21T04:04:29.768Z,85.38
2023-03-21T04:14:44.456Z,85.31
2023-03-21T04:24:52.018Z,85.34
2023-03-21T04:34:59.001Z,85.53
2023-03-21T04:45:07.017Z,85.55
2023-03-21T04:55:14.834Z,85.53
2023-03-21T05:05:19.711Z,85.43
2023-03-21T05:15:26.898Z,85.41
2023-03-21T05:25:34.589Z,85.59
2023-03-21T05:35:41.716Z,85.75
2023-03-21T05:45:48.690Z,85.50
2023-03-21T05:55:56.311Z,85.85
2023-03-21T06:06:03.050Z,85.72
2023-03-21T06:16:11.078Z,85.74
2023-03-21T06:26:19.992Z,85.83
2023-03-21T06:36:27.084Z,85.97
2023-03-21T06:46:34.438Z,85.83
2023-03-21T06:56:42.066Z,85.97
2023-03-21T07:06:49.158Z,85.84
2023-03-21T07:16:57.002Z,86.16
2023-03-21T07:27:04.043Z,86.06
2023-03-21T07:37:11.327Z,86.19
2023-03-21T07:47:18.495Z,86.59
2023-03-21T07:57:24.762Z,86.64
2023-03-21T08:07:34.164Z,86.73
2023-03-21T08:17:40.092Z,86.92
2023-03-21T08:27:49.279Z,86.90
2023-03-21T08:37:56.307Z,86.99
2023-03-21T08:48:03.865Z,87.11
2023-03-21T08:58:09.844Z,87.21
2023-03-21T09:08:17.136Z,87.37
2023-03-21T09:18:44.459Z,87.19
2023-03-21T09:28:53.529Z,86.56
2023-03-21T09:39:01.125Z,86.04
2023-03-21T09:49:13.187Z,85.79
2023-03-21T09:59:21.042Z,85.77
2023-03-21T10:09:32.725Z,86.00
2023-03-21T10:19:39.908Z,85.69
2023-03-21T10:29:47.816Z,85.42
2023-03-21T10:39:56.805Z,84.96
2023-03-21T10:50:08.073Z,84.78
2023-03-21T11:00:23.172Z,84.67
2023-03-21T11:10:30.854Z,84.59
2023-03-21T11:20:44.752Z,84.25
2023-03-21T11:30:54.337Z,84.08
2023-03-21T11:41:03.210Z,83.55
2023-03-21T11:51:14.491Z,82.90
2023-03-21T12:01:20.375Z,82.07
2023-03-21T12:11:25.578Z,81.69
2023-03-21T12:21:32.706Z,81.63
2023-03-21T12:31:41.348Z,80.89
2023-03-21T12:41:54.867Z,80.49
2023-03-21T12:52:05.795Z,80.11
2023-03-21T13:02:23.443Z,79.96
2023-03-21T13:12:34.159Z,79.20
2023-03-21T13:22:41.379Z,79.04
2023-03-21T13:32:50.618Z,79.00
2023-03-21T13:42:57.376Z,78.88
2023-03-21T13:53:20.412Z,78.27
2023-03-21T14:03:31.591Z,78.39
2023-03-21T14:13:50.923Z,78.09
2023-03-21T14:24:00.710Z,77.89
2023-03-21T14:34:11.278Z,77.76
2023-03-21T14:44:22.758Z,77.40
2023-03-21T14:54:31.488Z,77.63
2023-03-21T15:04:38.684Z,77.58
2023-03-21T15:14:46.440Z,77.70
2023-03-21T15:24:59.855Z,77.70
2023-03-21T15:35:06.047Z,78.01
2023-03-21T15:45:24.728Z,78.12
2023-03-21T15:55:29.672Z,78.09
2023-03-21T16:05:37.398Z,78.17
2023-03-21T16:15:45.781Z,78.29
2023-03-21T16:25:52.655Z,78.45
2023-03-21T16:36:00.960Z,78.45
2023-03-21T16:46:06.307Z,78.58
2023-03-21T16:56:14.711Z,78.67
2023-03-21T17:06:24.608Z,78.78
2023-03-21T17:16:32.175Z,79.12
2023-03-21T17:26:39.741Z,79.04
2023-03-21T17:36:49.110Z,79.07
2023-03-21T17:46:56.273Z,79.23
2023-03-21T17:57:03.601Z,79.40
2023-03-21T18:07:14.014Z,79.42
2023-03-21T18:17:23.864Z,79.55
2023-03-21T18:27:32.639Z,79.96
2023-03-21T18:37:39.851Z,79.94
2023-03-21T18:47:47.348Z,80.04
2023-03-21T18:57:54.903Z,79.95
2023-03-21T19:08:01.605Z,80.26
2023-03-21T19:28:32.909Z,80.54
2023-03-21T19:38:41.360Z,80.44
2023-03-21T19:48:50.349Z,80.94
2023-03-21T19:58:57.896Z,80.93
2023-03-21T20:09:47.222Z,81.01
2023-03-21T20:19:32.450Z,81.01
2023-03-21T20:30:10.130Z,81.18
2023-03-21T20:40:10.590Z,81.33
2023-03-21T20:50:22.044Z,81.43
2023-03-21T21:00:30.171Z,81.72
2023-03-21T21:11:04.058Z,81.68
2023-03-21T21:21:04.597Z,81.55
2023-03-21T21:31:16.536Z,81.69
2023-03-21T21:41:24.340Z,81.99
2023-03-21T21:51:34.329Z,81.98
2023-03-21T22:01:42.588Z,82.21
2023-03-21T22:11:50.100Z,82.24
2023-03-21T22:21:57.332Z,82.35
2023-03-21T22:32:04.662Z,82.40
2023-03-21T22:42:12.282Z,82.44
2023-03-21T22:52:19.631Z,82.58
2023-03-21T23:02:25.955Z,83.16
2023-03-21T23:12:33.066Z,83.62
2023-03-21T23:22:40.874Z,83.87
2023-03-21T23:32:48.082Z,83.82
2023-03-21T23:42:56.619Z,83.93
2023-03-21T23:53:03.147Z,83.70
